createdAt,value
2019-04-06T00:02:28.148Z,38.90
2019-04-06T00:04:54.332Z,49.00
2019-04-06T00:07:20.522Z,43.02
2019-04-06T00:09:46.720Z,48.92
2019-04-06T00:12:12.897Z,47.23
2019-04-06T00:14:39.067Z,44.50
2019-04-06T00:17:05.288Z,43.02
2019-04-06T00:19:31.587Z,44.77
2019-04-06T00:21:57.810Z,46.63
2019-04-06T00:24:24.005Z,46.58
2019-04-06T00:26:50.205Z,52.58
2019-04-06T00:29:16.385Z,48.52
2019-04-06T00:31:50.329Z,49.80
2019-04-06T00:34:16.700Z,52.03
2019-04-06T00:36:42.854Z,50.78
2019-04-06T00:39:09.082Z,52.13
2019-04-06T00:41:35.412Z,46.00
2019-04-06T00:44:01.564Z,53.40
2019-04-06T00:46:27.775Z,48.38
2019-04-06T00:48:54.003Z,46.53
2019-04-06T00:51:20.231Z,49.40
2019-04-06T00:53:46.392Z,49.53
2019-04-06T00:56:12.581Z,50.23
2019-04-06T00:58:39.019Z,42.15
2019-04-06T01:01:05.204Z,48.83
2019-04-06T01:03:31.509Z,53.17
2019-04-06T01:05:57.668Z,46.70
2019-04-06T01:08:23.861Z,48.83
2019-04-06T01:10:50.051Z,43.83
2019-04-06T01:13:16.422Z,42.48
2019-04-06T01:15:42.603Z,43.73
2019-04-06T01:18:08.763Z,43.10
2019-04-06T01:20:34.947Z,43.20
2019-04-06T01:23:01.149Z,48.45
2019-04-06T01:25:27.317Z,44.30
2019-04-06T01:27:53.513Z,39.85
2019-04-06T01:30:19.886Z,40.28
2019-04-06T01:32:46.044Z,40.30
2019-04-06T01:35:12.192Z,39.27
2019-04-06T01:37:38.401Z,44.18
2019-04-06T01:40:05.310Z,46.70
2019-04-06T01:42:31.513Z,41.77
2019-04-06T01:44:59.537Z,47.13
2019-04-06T01:47:25.773Z,47.60
2019-04-06T01:49:51.987Z,48.87
2019-04-06T01:52:18.203Z,50.48
2019-04-06T01:54:44.505Z,52.38
2019-04-06T01:57:10.720Z,60.50
2019-04-06T01:59:36.916Z,58.13
2019-04-06T02:02:07.533Z,58.23
2019-04-06T02:04:33.785Z,53.98
2019-04-06T02:06:59.978Z,57.38
2019-04-06T02:09:26.145Z,50.35
2019-04-06T02:11:52.327Z,52.20
2019-04-06T02:14:18.490Z,50.90
2019-04-06T02:16:44.681Z,55.00
2019-04-06T02:19:10.904Z,50.45
2019-04-06T02:21:37.055Z,48.30
2019-04-06T02:24:03.315Z,47.73
2019-04-06T02:26:31.120Z,50.80
2019-04-06T02:28:57.576Z,45.35
2019-04-06T02:31:28.537Z,47.08
2019-04-06T02:34:11.642Z,51.48
2019-04-06T02:36:54.537Z,50.15
2019-04-06T02:39:25.117Z,50.60
2019-04-06T02:41:53.193Z,50.90
2019-04-06T02:44:19.433Z,46.55
2019-04-06T02:46:45.602Z,54.85
2019-04-06T02:49:11.789Z,48.17
2019-04-06T02:51:37.996Z,53.55
2019-04-06T02:54:04.167Z,47.67
2019-04-06T02:56:45.016Z,53.98
2019-04-06T02:58:58.408Z,48.40
2019-04-06T03:01:24.609Z,55.45
2019-04-06T03:03:50.768Z,48.42
2019-04-06T03:06:16.960Z,50.50
2019-04-06T03:08:43.157Z,45.85
2019-04-06T03:11:09.333Z,48.48
2019-04-06T03:13:35.554Z,50.08
2019-04-06T03:16:02.136Z,53.60
2019-04-06T03:18:28.495Z,45.85
2019-04-06T03:20:54.760Z,49.38
2019-04-06T03:23:24.282Z,49.55
2019-04-06T03:25:49.115Z,53.68
2019-04-06T03:28:15.310Z,51.00
2019-04-06T03:30:41.463Z,46.18
2019-04-06T03:33:07.632Z,51.45
2019-04-06T03:35:33.849Z,52.25
2019-04-06T03:38:00.013Z,46.18
2019-04-06T03:40:26.228Z,49.27
2019-04-06T03:42:52.407Z,49.98
2019-04-06T03:45:18.617Z,46.73
2019-04-06T03:47:44.909Z,47.53
2019-04-06T03:50:11.425Z,53.35
2019-04-06T03:52:40.606Z,53.75
2019-04-06T03:55:07.385Z,53.23
2019-04-06T03:57:33.684Z,58.25
2019-04-06T03:59:59.882Z,58.08
2019-04-06T04:02:26.268Z,53.73
2019-04-06T04:04:52.604Z,58.02
2019-04-06T04:07:19.092Z,52.48
2019-04-06T04:09:45.418Z,55.43
2019-04-06T04:12:11.630Z,53.38
2019-04-06T04:14:37.889Z,54.83
2019-04-06T04:17:04.053Z,53.58
2019-04-06T04:19:30.349Z,54.08
2019-04-06T04:21:56.519Z,51.60
2019-04-06T04:24:22.861Z,53.25
2019-04-06T04:26:49.070Z,54.65
2019-04-06T04:29:15.267Z,49.90
2019-04-06T04:31:41.421Z,51.23
2019-04-06T04:34:08.006Z,58.48
2019-04-06T04:36:34.171Z,52.58
2019-04-06T04:39:00.766Z,53.78
2019-04-06T04:41:26.955Z,53.87
2019-04-06T04:43:53.171Z,52.67
2019-04-06T04:46:19.362Z,51.98
2019-04-06T04:48:45.560Z,49.67
2019-04-06T04:51:11.835Z,57.15
2019-04-06T04:53:38.004Z,53.17
2019-04-06T04:56:04.286Z,51.05
2019-04-06T04:58:30.500Z,48.35
2019-04-06T05:00:56.660Z,53.20
2019-04-06T05:03:23.028Z,55.55
2019-04-06T05:05:49.188Z,56.37
2019-04-06T05:08:15.402Z,60.48
2019-04-06T05:10:42.740Z,60.00
2019-04-06T05:13:08.942Z,54.65
2019-04-06T05:15:54.085Z,60.52
2019-04-06T05:18:20.364Z,55.83
2019-04-06T05:20:47.140Z,48.42
2019-04-06T05:23:13.337Z,57.88
2019-04-06T05:25:39.514Z,52.88
2019-04-06T05:28:05.813Z,54.18
2019-04-06T05:30:32.028Z,52.62
2019-04-06T05:32:58.197Z,54.80
2019-04-06T05:35:24.608Z,55.33
2019-04-06T05:37:50.789Z,59.08
2019-04-06T05:40:16.941Z,58.38
2019-04-06T05:42:43.124Z,54.95
2019-04-06T05:45:09.668Z,62.43
2019-04-06T05:47:35.862Z,56.15
2019-04-06T05:50:04.660Z,58.70
2019-04-06T05:52:30.832Z,58.92
2019-04-06T05:54:57.327Z,58.08
2019-04-06T05:57:23.563Z,56.35
2019-04-06T05:59:49.725Z,59.13
2019-04-06T06:02:15.931Z,58.25
2019-04-06T06:04:42.223Z,56.45
2019-04-06T06:07:08.563Z,57.73
2019-04-06T06:09:34.840Z,63.50
2019-04-06T06:12:01.043Z,52.67
2019-04-06T06:14:27.228Z,60.98
2019-04-06T06:16:53.498Z,52.15
2019-04-06T06:19:19.669Z,50.60
2019-04-06T06:21:45.870Z,53.02
2019-04-06T06:24:12.068Z,57.40
2019-04-06T06:26:38.232Z,54.60
2019-04-06T06:29:04.659Z,55.38
2019-04-06T06:31:30.954Z,58.00
2019-04-06T06:33:57.543Z,59.90
2019-04-06T06:36:23.972Z,57.48
2019-04-06T06:38:50.187Z,57.88
2019-04-06T06:41:16.523Z,56.92
2019-04-06T06:43:45.047Z,58.40
2019-04-06T06:46:10.818Z,54.05
2019-04-06T06:48:36.990Z,59.13
2019-04-06T06:51:03.462Z,60.43
2019-04-06T06:53:29.639Z,59.48
2019-04-06T06:55:55.865Z,58.80
2019-04-06T06:58:25.726Z,62.60
2019-04-06T07:00:50.182Z,58.70
2019-04-06T07:03:16.354Z,60.63
2019-04-06T07:05:42.560Z,63.08
2019-04-06T07:08:08.757Z,60.78
2019-04-06T07:10:34.963Z,62.27
2019-04-06T07:13:01.141Z,65.67
2019-04-06T07:15:27.367Z,60.60
2019-04-06T07:17:53.552Z,57.78
2019-04-06T07:20:19.736Z,58.20
2019-04-06T07:22:45.941Z,58.17
2019-04-06T07:25:12.614Z,68.55
2019-04-06T07:27:39.027Z,61.55
2019-04-06T07:30:05.972Z,64.65
2019-04-06T07:32:32.181Z,63.73
2019-04-06T07:34:58.400Z,65.97
2019-04-06T07:37:24.574Z,66.40
2019-04-06T07:39:50.735Z,62.25
2019-04-06T07:42:16.924Z,59.40
2019-04-06T07:44:43.181Z,61.58
2019-04-06T07:47:09.415Z,63.45
2019-04-06T07:49:35.667Z,60.03
2019-04-06T07:52:01.873Z,61.55
2019-04-06T07:54:28.141Z,67.20
2019-04-06T07:56:54.383Z,67.10
2019-04-06T07:59:20.551Z,61.30
2019-04-06T08:01:48.543Z,69.00
2019-04-06T08:04:14.861Z,64.77
2019-04-06T08:06:41.109Z,66.30
2019-04-06T08:09:07.394Z,61.68
2019-04-06T08:11:33.569Z,64.55
2019-04-06T08:13:59.743Z,69.53
2019-04-06T08:16:26.008Z,62.15
2019-04-06T08:18:52.403Z,70.75
2019-04-06T08:21:19.736Z,63.30
2019-04-06T08:23:46.147Z,59.00
2019-04-06T08:26:12.308Z,64.55
2019-04-06T08:28:38.500Z,61.48
2019-04-06T08:31:04.694Z,61.73
2019-04-06T08:33:30.912Z,64.07
2019-04-06T08:35:57.178Z,65.12
2019-04-06T08:38:23.528Z,63.78
2019-04-06T08:40:49.730Z,63.55
2019-04-06T08:43:15.974Z,59.67
2019-04-06T08:45:42.179Z,61.68
2019-04-06T08:48:08.356Z,61.88
2019-04-06T08:50:34.768Z,64.77
2019-04-06T08:53:00.956Z,59.58
2019-04-06T08:55:27.216Z,57.73
2019-04-06T08:57:53.617Z,58.48
2019-04-06T09:00:20.286Z,54.58
2019-04-06T09:02:46.505Z,54.80
2019-04-06T09:05:13.028Z,56.23
2019-04-06T09:07:40.759Z,56.75
2019-04-06T09:10:09.090Z,53.98
2019-04-06T09:12:36.293Z,53.58
2019-04-06T09:15:05.583Z,55.65
2019-04-06T09:17:31.911Z,50.48
2019-04-06T09:19:58.237Z,53.63
2019-04-06T09:22:24.430Z,52.00
2019-04-06T09:24:50.664Z,49.63
2019-04-06T09:27:16.959Z,45.52
2019-04-06T09:29:43.132Z,47.75
2019-04-06T09:32:09.594Z,42.67
2019-04-06T09:34:35.908Z,41.98
2019-04-06T09:37:02.096Z,43.17
2019-04-06T09:39:28.258Z,45.83
2019-04-06T09:41:54.661Z,45.00
2019-04-06T09:44:26.076Z,41.05
2019-04-06T09:46:59.779Z,43.70
2019-04-06T09:49:27.844Z,42.27
2019-04-06T09:52:12.255Z,41.68
2019-04-06T09:54:40.353Z,41.95
2019-04-06T09:57:08.489Z,41.65
2019-04-06T09:59:48.000Z,41.18
2019-04-06T10:02:21.252Z,39.48
2019-04-06T10:04:58.104Z,37.00
2019-04-06T10:07:37.993Z,40.08
2019-04-06T10:10:12.768Z,39.35
2019-04-06T10:12:49.403Z,36.63
2019-04-06T10:15:17.656Z,36.53
2019-04-06T10:18:04.060Z,36.80
2019-04-06T10:20:37.882Z,39.33
2019-04-06T10:23:08.737Z,34.50
2019-04-06T10:25:48.727Z,36.10
2019-04-06T10:28:25.382Z,37.13
2019-04-06T10:31:11.425Z,35.63
2019-04-06T10:33:39.580Z,32.35
2019-04-06T10:36:10.442Z,33.55
2019-04-06T10:38:38.656Z,32.75
2019-04-06T10:41:18.897Z,34.10
2019-04-06T10:44:03.789Z,31.33
2019-04-06T10:46:48.707Z,34.75
2019-04-06T10:49:16.875Z,34.73
2019-04-06T10:51:53.751Z,32.95
2019-04-06T10:54:36.784Z,31.60
2019-04-06T10:57:04.894Z,31.55
2019-04-06T10:59:38.793Z,30.23
2019-04-06T11:02:23.272Z,34.03
2019-04-06T11:04:51.735Z,35.52
2019-04-06T11:07:31.623Z,38.58
2019-04-06T11:10:08.234Z,38.50
2019-04-06T11:12:38.928Z,36.68
2019-04-06T11:15:10.083Z,35.58
2019-04-06T11:17:54.454Z,34.83
2019-04-06T11:20:22.560Z,35.30
2019-04-06T11:22:56.251Z,33.67
2019-04-06T11:25:35.941Z,31.17
2019-04-06T11:28:15.672Z,36.35
2019-04-06T11:30:49.577Z,34.20
2019-04-06T11:33:26.760Z,35.50
2019-04-06T11:36:00.634Z,34.45
2019-04-06T11:38:51.810Z,32.10
2019-04-06T11:41:28.836Z,32.98
2019-04-06T11:43:58.204Z,35.80
2019-04-06T11:46:29.093Z,35.28
2019-04-06T11:49:03.226Z,29.92
2019-04-06T11:51:31.316Z,33.95
2019-04-06T11:53:59.385Z,30.52
2019-04-06T11:56:33.166Z,31.62
2019-04-06T11:59:01.420Z,32.25
2019-04-06T12:01:31.296Z,31.42
2019-04-06T12:04:03.998Z,35.65
2019-04-06T12:06:48.035Z,33.02
2019-04-06T12:09:31.517Z,30.80
2019-04-06T12:12:08.521Z,38.75
2019-04-06T12:14:51.556Z,34.05
2019-04-06T12:17:33.301Z,35.85
2019-04-06T12:20:13.808Z,34.53
2019-04-06T12:22:51.323Z,36.33
2019-04-06T12:25:35.838Z,31.65
2019-04-06T12:28:12.661Z,33.30
2019-04-06T12:30:43.677Z,32.15
2019-04-06T12:33:14.934Z,31.60
2019-04-06T12:35:43.148Z,30.90
2019-04-06T12:38:11.202Z,32.93
2019-04-06T12:40:56.311Z,29.35
2019-04-06T12:43:42.450Z,29.63
2019-04-06T12:46:27.236Z,31.37
2019-04-06T12:48:56.681Z,30.02
2019-04-06T12:51:36.756Z,27.50
2019-04-06T12:54:18.676Z,26.37
2019-04-06T12:56:49.412Z,28.57
2019-04-06T12:59:35.642Z,28.75
2019-04-06T13:02:20.274Z,25.37
2019-04-06T13:05:05.107Z,26.33
2019-04-06T13:07:36.341Z,26.70
2019-04-06T13:10:15.776Z,27.80
2019-04-06T13:13:00.273Z,25.62
2019-04-06T13:15:34.224Z,22.73
2019-04-06T13:18:08.001Z,22.55
2019-04-06T13:20:52.692Z,22.62
2019-04-06T13:23:22.008Z,18.82
2019-04-06T13:26:06.608Z,20.57
2019-04-06T13:28:34.703Z,16.65
2019-04-06T13:31:19.222Z,13.70
2019-04-06T13:33:50.344Z,16.80
2019-04-06T13:36:35.077Z,15.95
2019-04-06T13:39:09.128Z,14.50
2019-04-06T13:41:52.192Z,13.78
2019-04-06T13:44:26.070Z,16.15
2019-04-06T13:47:04.102Z,16.87
2019-04-06T13:49:35.307Z,18.70
2019-04-06T13:52:18.626Z,12.98
2019-04-06T13:55:03.172Z,13.35
2019-04-06T13:57:31.353Z,16.35
2019-04-06T14:00:16.538Z,14.70
2019-04-06T14:02:56.792Z,15.83
2019-04-06T14:05:24.963Z,17.00
2019-04-06T14:08:09.669Z,13.10
2019-04-06T14:10:54.322Z,13.13
2019-04-06T14:13:22.482Z,13.05
2019-04-06T14:15:50.554Z,12.10
2019-04-06T14:18:18.709Z,13.13
2019-04-06T14:20:52.712Z,16.20
2019-04-06T14:23:21.157Z,13.75
2019-04-06T14:25:50.051Z,15.45
2019-04-06T14:28:24.203Z,15.58
2019-04-06T14:30:53.489Z,13.95
2019-04-06T14:33:27.561Z,14.40
2019-04-06T14:36:01.413Z,15.98
2019-04-06T14:38:32.517Z,14.95
2019-04-06T14:41:12.561Z,14.47
2019-04-06T14:43:46.704Z,13.28
2019-04-06T14:46:17.453Z,13.75
2019-04-06T14:48:48.831Z,13.18
2019-04-06T14:51:17.386Z,13.60
2019-04-06T14:53:45.452Z,12.35
2019-04-06T14:56:30.240Z,14.30
2019-04-06T14:58:58.320Z,12.70
2019-04-06T15:01:45.278Z,14.15
2019-04-06T15:04:05.888Z,11.57
2019-04-06T15:06:39.642Z,12.47
2019-04-06T15:09:25.953Z,13.83
2019-04-06T15:11:54.066Z,13.35
2019-04-06T15:14:37.270Z,12.93
2019-04-06T15:17:05.350Z,13.85
2019-04-06T15:19:50.484Z,14.58
2019-04-06T15:22:18.604Z,15.13
2019-04-06T15:24:55.646Z,13.43
2019-04-06T15:27:29.422Z,13.48
2019-04-06T15:30:00.356Z,13.55
2019-04-06T15:32:34.736Z,14.23
2019-04-06T15:35:03.109Z,15.32
2019-04-06T15:37:34.252Z,12.98
2019-04-06T15:40:11.284Z,12.40
2019-04-06T15:42:39.385Z,10.68
2019-04-06T15:45:19.751Z,11.03
2019-04-06T15:48:04.178Z,11.60
2019-04-06T15:50:43.992Z,10.25
2019-04-06T15:53:20.776Z,11.33
2019-04-06T15:55:52.047Z,10.58
2019-04-06T15:58:31.976Z,11.33
2019-04-06T16:01:17.264Z,11.45
2019-04-06T16:03:48.442Z,9.48
2019-04-06T16:06:32.793Z,9.80
2019-04-06T16:09:17.236Z,8.70
2019-04-06T16:11:45.304Z,9.60
2019-04-06T16:14:16.563Z,8.18
2019-04-06T16:16:47.553Z,7.58
2019-04-06T16:19:18.873Z,7.95
2019-04-06T16:22:05.591Z,8.78
2019-04-06T16:24:33.798Z,8.03
2019-04-06T16:27:01.887Z,8.28
2019-04-06T16:29:30.388Z,9.05
2019-04-06T16:32:13.993Z,9.08
2019-04-06T16:34:42.286Z,7.10
2019-04-06T16:37:16.032Z,6.17
2019-04-06T16:39:46.857Z,7.40
2019-04-06T16:42:23.733Z,6.20
2019-04-06T16:44:51.800Z,8.95
2019-04-06T16:47:19.888Z,9.50
2019-04-06T16:49:53.988Z,8.63
2019-04-06T16:52:30.849Z,7.65
2019-04-06T16:55:10.976Z,5.35
2019-04-06T16:57:42.551Z,10.48
2019-04-06T17:00:19.587Z,14.83
2019-04-06T17:02:46.814Z,7.17
2019-04-06T17:05:20.834Z,34.83
2019-04-06T17:07:48.905Z,12.95
2019-04-06T17:10:33.746Z,11.48
2019-04-06T17:13:01.856Z,14.15
2019-04-06T17:15:48.063Z,11.48
2019-04-06T17:18:16.230Z,11.55
2019-04-06T17:20:53.068Z,14.28
2019-04-06T17:23:21.182Z,7.50
2019-04-06T17:25:49.278Z,7.97
2019-04-06T17:28:26.359Z,8.18
2019-04-06T17:30:54.481Z,8.53
2019-04-06T17:33:22.640Z,9.93
2019-04-06T17:35:50.759Z,9.35
2019-04-06T17:38:21.332Z,10.05
2019-04-06T17:40:55.892Z,9.73
2019-04-06T17:43:40.419Z,9.70
2019-04-06T17:46:26.625Z,8.35
2019-04-06T17:49:11.420Z,7.50
2019-04-06T17:51:39.587Z,7.72
2019-04-06T17:54:24.379Z,8.00
2019-04-06T17:56:55.606Z,9.05
2019-04-06T17:59:26.796Z,9.43
2019-04-06T18:02:11.426Z,7.55
2019-04-06T18:04:42.254Z,9.38
2019-04-06T18:07:10.425Z,8.73
2019-04-06T18:09:44.761Z,7.10
2019-04-06T18:12:20.012Z,6.90
2019-04-06T18:14:46.235Z,8.95
2019-04-06T18:17:15.997Z,9.08
2019-04-06T18:19:43.813Z,9.25
2019-04-06T18:22:10.480Z,9.63
2019-04-06T18:24:36.807Z,8.00
2019-04-06T18:27:03.217Z,11.75
2019-04-06T18:29:30.841Z,11.33
2019-04-06T18:32:14.176Z,8.70
2019-04-06T18:34:40.348Z,8.23
2019-04-06T18:37:08.418Z,10.40
2019-04-06T18:39:34.598Z,7.70
2019-04-06T18:42:01.966Z,7.03
2019-04-06T18:44:28.145Z,8.58
2019-04-06T18:46:54.368Z,7.03
2019-04-06T18:49:20.847Z,6.58
2019-04-06T18:51:47.079Z,8.68
2019-04-06T18:54:13.281Z,7.72
2019-04-06T18:56:39.470Z,8.45
2019-04-06T18:59:06.133Z,5.85
2019-04-06T19:01:33.676Z,7.40
2019-04-06T19:04:01.078Z,7.67
2019-04-06T19:06:27.285Z,7.10
2019-04-06T19:08:53.527Z,8.10
2019-04-06T19:11:19.872Z,6.90
2019-04-06T19:13:46.504Z,8.03
2019-04-06T19:16:12.798Z,8.10
2019-04-06T19:18:41.028Z,6.30
2019-04-06T19:21:07.340Z,7.47
2019-04-06T19:23:33.564Z,6.65
2019-04-06T19:26:00.187Z,10.08
2019-04-06T19:28:26.572Z,6.62
2019-04-06T19:30:52.804Z,5.83
2019-04-06T19:33:25.171Z,7.40
2019-04-06T19:35:47.240Z,7.45
2019-04-06T19:38:13.463Z,7.25
2019-04-06T19:40:40.832Z,6.47
2019-04-06T19:43:07.693Z,7.35
2019-04-06T19:45:33.973Z,8.20
2019-04-06T19:48:00.237Z,7.33
2019-04-06T19:50:27.432Z,9.95
2019-04-06T19:52:53.621Z,6.97
2019-04-06T19:55:20.296Z,6.85
2019-04-06T19:57:47.064Z,5.78
2019-04-06T20:00:15.047Z,6.17
2019-04-06T20:02:41.897Z,6.17
2019-04-06T20:05:08.530Z,7.83
2019-04-06T20:07:34.715Z,6.75
2019-04-06T20:10:01.226Z,6.17
2019-04-06T20:12:27.543Z,8.28
2019-04-06T20:14:53.917Z,5.87
2019-04-06T20:17:20.097Z,6.97
2019-04-06T20:19:48.200Z,6.85
2019-04-06T20:22:14.854Z,6.75
2019-04-06T20:24:41.177Z,7.03
2019-04-06T20:27:07.399Z,6.92
2019-04-06T20:29:34.123Z,6.17
2019-04-06T20:32:01.458Z,6.10
2019-04-06T20:34:28.226Z,5.95
2019-04-06T20:36:54.396Z,7.10
2019-04-06T20:39:20.600Z,6.55
2019-04-06T20:41:46.773Z,6.47
2019-04-06T20:44:13.080Z,6.72
2019-04-06T20:46:41.212Z,5.58
2019-04-06T20:49:07.665Z,6.78
2019-04-06T20:51:34.370Z,6.40
2019-04-06T20:54:00.951Z,6.12
2019-04-06T20:56:27.251Z,5.65
2019-04-06T20:58:53.468Z,8.58
2019-04-06T21:01:19.645Z,5.70
2019-04-06T21:03:45.800Z,7.95
2019-04-06T21:06:12.211Z,5.58
2019-04-06T21:08:39.000Z,5.00
2019-04-06T21:11:05.569Z,7.25
2019-04-06T21:13:31.736Z,6.25
2019-04-06T21:15:57.926Z,7.37
2019-04-06T21:18:24.356Z,5.97
2019-04-06T21:20:50.822Z,6.22
2019-04-06T21:23:17.214Z,5.55
2019-04-06T21:25:43.516Z,6.17
2019-04-06T21:28:10.033Z,9.78
2019-04-06T21:30:36.787Z,6.22
2019-04-06T21:33:03.341Z,5.78
2019-04-06T21:35:30.100Z,5.78
2019-04-06T21:37:56.285Z,6.03
2019-04-06T21:40:22.525Z,5.78
2019-04-06T21:42:48.732Z,6.37
2019-04-06T21:45:15.268Z,5.83
2019-04-06T21:47:41.590Z,8.55
2019-04-06T21:50:08.090Z,7.53
2019-04-06T21:52:35.267Z,4.92
2019-04-06T21:55:02.439Z,8.78
2019-04-06T21:57:28.696Z,6.25
2019-04-06T21:59:55.134Z,5.53
2019-04-06T22:02:21.751Z,6.60
2019-04-06T22:04:48.403Z,4.87
2019-04-06T22:07:14.675Z,5.10
2019-04-06T22:09:41.276Z,5.33
2019-04-06T22:12:08.210Z,4.78
2019-04-06T22:14:34.774Z,5.58
2019-04-06T22:17:02.718Z,7.17
2019-04-06T22:19:29.030Z,3.83
2019-04-06T22:21:55.465Z,4.42
2019-04-06T22:24:21.744Z,5.85
2019-04-06T22:26:47.930Z,5.87
2019-04-06T22:29:14.116Z,4.97
2019-04-06T22:31:40.280Z,4.75
2019-04-06T22:34:06.865Z,6.35
2019-04-06T22:36:33.248Z,4.10
2019-04-06T22:38:59.480Z,4.22
2019-04-06T22:41:26.272Z,4.72
2019-04-06T22:43:53.435Z,4.97
2019-04-06T22:46:20.171Z,3.65
2019-04-06T22:48:46.890Z,4.15
2019-04-06T22:51:13.872Z,4.87
2019-04-06T22:53:41.115Z,6.40
2019-04-06T22:56:07.273Z,3.95
2019-04-06T22:58:33.459Z,3.00
2019-04-06T23:01:07.866Z,6.53
2019-04-06T23:03:47.823Z,5.05
2019-04-06T23:06:16.331Z,3.33
2019-04-06T23:08:42.591Z,4.55
2019-04-06T23:11:09.046Z,5.45
2019-04-06T23:13:35.224Z,4.37
2019-04-06T23:16:01.407Z,6.60
2019-04-06T23:18:27.624Z,3.85
2019-04-06T23:20:53.922Z,5.28
2019-04-06T23:23:20.142Z,4.17
2019-04-06T23:25:46.494Z,3.95
2019-04-06T23:28:12.923Z,4.00
2019-04-06T23:30:39.712Z,4.50
2019-04-06T23:33:05.984Z,6.65
2019-04-06T23:35:32.946Z,4.33
2019-04-06T23:37:59.159Z,4.20
2019-04-06T23:40:25.939Z,4.70
2019-04-06T23:42:52.600Z,4.45
2019-04-06T23:45:18.873Z,4.00
2019-04-06T23:47:45.483Z,3.30
2019-04-06T23:50:12.308Z,3.27
2019-04-06T23:52:38.505Z,4.35
2019-04-06T23:55:06.653Z,4.20
2019-04-06T23:57:32.852Z,3.92
2019-04-06T23:59:59.321Z,4.72
